Time;durP1;ratioP1;P1;durP2;ratioP2;P2;SDS_P1;SDS_P2;PMS_P1;PMS_P2;Temp;Humidity;BMP_temperature;BMP_pressure;BME280_temperature;BME280_humidity;BME280_pressure;Samples;Min_cycle;Max_cycle;Signal;HPM_P1;HPM_P2
2021/11/04 00:00:03;;;;;;;;;12.25;10.00;;;;;15.51;72.43;101240.50;146606;631;46021;-78
2021/11/04 00:02:37;;;;;;;;;9.00;7.75;;;;;15.47;73.25;101247.34;146604;686;46016;-78
2021/11/04 00:05:12;;;;;;;;;7.75;7.75;;;;;15.42;72.60;101235.84;146608;569;46012;-79
2021/11/04 00:07:48;;;;;;;;;7.75;7.00;;;;;15.40;72.66;101234.00;146604;742;46016;-80
2021/11/04 00:10:24;;;;;;;;;11.50;9.50;;;;;15.38;73.60;101233.03;146608;636;45907;-79
2021/11/04 00:12:58;;;;;;;;;8.50;8.50;;;;;15.36;73.97;101233.00;146606;563;46016;-81
2021/11/04 00:15:32;;;;;;;;;12.00;11.25;;;;;15.35;74.17;101230.28;146608;602;45023;-80
2021/11/04 00:18:06;;;;;;;;;11.50;10.25;;;;;15.35;73.98;101232.91;146606;615;46012;-77
2021/11/04 00:20:40;;;;;;;;;12.50;11.50;;;;;15.36;72.95;101226.87;146607;622;46013;-80
2021/11/04 00:23:26;;;;;;;;;13.00;12.00;;;;;15.38;72.81;101233.91;146605;666;46016;-87
2021/11/04 00:26:01;;;;;;;;;9.25;9.00;;;;;15.43;73.00;101239.34;146610;702;45020;-78
2021/11/04 00:28:56;;;;;;;;;;;;;;;;;;;;;
2021/11/04 00:31:43;;;;;;;;;13.75;11.75;;;;;15.46;72.47;101236.84;146600;599;46907;-83
2021/11/04 00:34:17;;;;;;;;;16.00;14.00;;;;;15.46;72.31;101240.34;146599;661;46012;-78
2021/11/04 00:36:51;;;;;;;;;15.00;14.75;;;;;15.50;72.84;101250.94;146604;564;45030;-77
2021/11/04 00:39:25;;;;;;;;;20.00;16.75;;;;;15.50;74.31;101243.09;146598;563;47012;-77
2021/11/04 00:41:59;;;;;;;;;19.25;16.00;;;;;15.47;73.17;101243.84;146604;682;45022;-78
2021/11/04 00:44:34;;;;;;;;;19.50;17.25;;;;;15.47;75.25;101251.69;146598;608;47917;-78
2021/11/04 00:47:08;;;;;;;;;26.75;23.25;;;;;15.45;77.47;101246.41;146600;590;46012;-78
2021/11/04 00:49:42;;;;;;;;;19.00;18.25;;;;;15.43;76.22;101253.28;146599;616;46012;-79
2021/11/04 00:52:16;;;;;;;;;17.50;14.25;;;;;15.38;74.88;101251.31;146601;630;46021;-79
2021/11/04 00:54:50;;;;;;;;;16.00;13.25;;;;;15.33;74.30;101245.94;146598;592;47023;-80
2021/11/04 00:57:24;;;;;;;;;10.25;10.25;;;;;15.32;73.94;101249.34;146604;641;45022;-81
2021/11/04 00:59:57;;;;;;;;;12.75;11.25;;;;;15.30;73.91;101244.91;146599;564;46012;-78
2021/11/04 01:02:32;;;;;;;;;12.00;10.00;;;;;15.30;73.82;101250.13;146607;607;46020;-80
2021/11/04 01:05:06;;;;;;;;;10.00;9.00;;;;;15.30;73.80;101245.81;146611;605;45918;-80
2021/11/04 01:07:40;;;;;;;;;12.67;9.00;;;;;15.29;73.61;101248.34;146608;582;46020;-75
2021/11/04 01:10:16;;;;;;;;;10.50;9.00;;;;;15.24;73.62;101236.00;146604;624;46016;-78
2021/11/04 01:12:51;;;;;;;;;8.75;6.50;;;;;15.17;72.85;101244.41;146609;681;45022;-82
2021/11/04 01:15:25;;;;;;;;;8.00;7.00;;;;;15.13;72.66;101237.25;146609;690;46012;-75
2021/11/04 01:17:59;;;;;;;;;8.50;7.50;;;;;15.11;72.90;101243.25;146608;566;46020;-75
2021/11/04 01:20:33;;;;;;;;;11.00;8.75;;;;;15.09;72.86;101237.09;146604;576;47918;-74
2021/11/04 01:23:07;;;;;;;;;9.00;8.67;;;;;15.06;73.52;101235.25;146612;596;45021;-77
2021/11/04 01:25:40;;;;;;;;;8.25;7.50;;;;;15.04;73.12;101247.34;146606;731;46016;-76
2021/11/04 01:28:15;;;;;;;;;10.00;9.00;;;;;15.00;72.78;101243.69;146609;715;46012;-76
2021/11/04 01:30:49;;;;;;;;;15.00;13.00;;;;;14.97;73.55;101246.19;146606;702;46012;-77
2021/11/04 01:33:24;;;;;;;;;14.25;12.25;;;;;14.90;73.05;101245.88;146606;591;46020;-78
2021/11/04 01:35:57;;;;;;;;;12.00;9.50;;;;;14.89;74.20;101251.91;146603;626;46017;-78
2021/11/04 01:38:31;;;;;;;;;11.50;8.25;;;;;14.87;73.37;101259.69;146605;631;46020;-78
2021/11/04 01:41:05;;;;;;;;;13.00;11.00;;;;;14.86;73.88;101268.38;146604;681;46012;-76
2021/11/04 01:43:39;;;;;;;;;12.00;10.50;;;;;14.88;73.74;101261.47;146606;653;47013;-78
2021/11/04 01:46:14;;;;;;;;;15.00;13.50;;;;;14.89;73.34;101265.88;146605;609;45020;-77
2021/11/04 01:48:48;;;;;;;;;14.50;11.75;;;;;14.92;72.75;101276.47;146607;595;46020;-74
2021/11/04 01:51:23;;;;;;;;;12.75;11.50;;;;;14.93;72.77;101270.41;146605;570;46021;-75
2021/11/04 01:53:57;;;;;;;;;11.50;11.50;;;;;14.95;72.96;101275.66;146607;674;46012;-79
2021/11/04 01:56:31;;;;;;;;;15.25;11.25;;;;;14.94;72.52;101266.06;146606;566;46020;-73
2021/11/04 01:59:05;;;;;;;;;11.25;8.75;;;;;14.92;72.72;101267.72;146606;661;46908;-74
2021/11/04 02:01:39;;;;;;;;;11.00;10.75;;;;;14.89;72.78;101264.97;146602;687;47917;-79
2021/11/04 02:04:33;;;;;;;;;18.50;15.25;;;;;14.84;72.86;101263.91;146603;583;46020;-79
2021/11/04 02:07:13;;;;;;;;;15.00;14.00;;;;;14.73;73.56;101272.13;146605;570;46016;-78
2021/11/04 02:10:01;;;;;;;;;16.00;14.75;;;;;14.67;73.83;101271.00;146605;574;46020;-87
2021/11/04 02:12:47;;;;;;;;;18.00;15.25;;;;;14.61;74.86;101270.72;146602;597;46017;-88
2021/11/04 02:15:22;;;;;;;;;19.00;17.00;;;;;14.57;74.92;101282.75;146609;583;45022;-76
2021/11/04 02:17:55;;;;;;;;;16.50;15.50;;;;;14.55;74.41;101280.09;146603;584;46016;-79
2021/11/04 02:21:19;;;;;;;;;17.50;15.00;;;;;14.58;73.70;101283.63;146609;618;45023;-80
2021/11/04 02:24:23;;;;;;;;;16.25;15.00;;;;;14.53;74.96;101286.94;146603;589;46016;-79
2021/11/04 02:26:57;;;;;;;;;17.50;16.00;;;;;14.44;75.87;101289.12;146607;603;45021;-78
2021/11/04 02:29:32;;;;;;;;;15.25;14.25;;;;;14.35;77.17;101282.59;146601;571;46016;-79
2021/11/04 02:32:06;;;;;;;;;16.00;14.00;;;;;14.29;75.95;101294.53;146606;593;45020;-79
2021/11/04 02:34:45;;;;;;;;;13.75;11.25;;;;;14.26;75.45;101294.37;146604;576;46017;-79
2021/11/04 02:37:20;;;;;;;;;13.25;11.00;;;;;14.25;76.28;101300.44;146607;685;46012;-78
2021/11/04 02:39:55;;;;;;;;;13.50;11.50;;;;;14.22;76.72;101291.59;146604;569;46017;-79
2021/11/04 02:42:29;;;;;;;;;10.75;9.25;;;;;14.20;76.87;101298.44;146606;604;46020;-78
2021/11/04 02:45:04;;;;;;;;;14.00;11.50;;;;;14.16;77.28;101305.22;146602;571;47917;-79
2021/11/04 02:47:41;;;;;;;;;14.25;11.25;;;;;14.16;76.80;101312.19;146609;607;45020;-74
2021/11/04 02:50:15;;;;;;;;;10.00;8.50;;;;;14.12;76.00;101308.53;146608;615;46016;-83
2021/11/04 02:52:49;;;;;;;;;12.50;9.75;;;;;14.10;75.95;101308.44;146605;644;46010;-81
2021/11/04 02:55:35;;;;;;;;;8.00;7.50;;;;;14.10;75.46;101308.44;146607;651;45020;-75
2021/11/04 02:58:13;;;;;;;;;11.75;10.00;;;;;14.12;75.43;101310.25;146602;593;46021;-81
2021/11/04 03:00:55;;;;;;;;;10.00;9.00;;;;;14.14;76.01;101316.41;146604;592;46016;-75
2021/11/04 03:03:30;;;;;;;;;12.75;10.75;;;;;14.16;75.48;101320.88;146605;686;46021;-78
2021/11/04 03:06:06;;;;;;;;;9.67;7.67;;;;;14.16;75.31;101317.38;146606;667;46016;-77
2021/11/04 03:08:40;;;;;;;;;8.00;7.50;;;;;14.14;75.42;101325.13;146606;570;47012;-82
2021/11/04 03:11:14;;;;;;;;;7.75;6.50;;;;;14.14;75.02;101325.13;146601;654;46017;-82
2021/11/04 03:13:48;;;;;;;;;6.75;6.75;;;;;14.15;74.83;101326.94;146611;572;46010;-82
2021/11/04 03:16:23;;;;;;;;;9.00;7.00;;;;;14.18;74.21;101331.41;146605;592;46012;-83
2021/11/04 03:18:59;;;;;;;;;7.00;5.67;;;;;14.22;74.10;101339.44;146609;581;46021;-83
2021/11/04 03:21:33;;;;;;;;;9.00;9.00;;;;;14.26;74.28;101336.13;146605;640;46012;-82
2021/11/04 03:24:09;;;;;;;;;8.00;8.00;;;;;14.31;73.78;101345.06;146604;566;46020;-79
2021/11/04 03:26:46;;;;;;;;;8.00;7.50;;;;;14.32;74.14;101348.56;146606;660;46016;-80
2021/11/04 03:29:21;;;;;;;;;8.50;8.50;;;;;14.32;74.14;101345.94;146609;615;46020;-76
2021/11/04 03:31:58;;;;;;;;;12.00;8.75;;;;;14.29;74.09;101340.59;146602;646;46017;-75
2021/11/04 03:34:32;;;;;;;;;8.50;8.50;;;;;14.25;74.68;101347.41;146606;622;46020;-78
2021/11/04 03:37:11;;;;;;;;;10.50;10.50;;;;;14.19;75.56;101354.94;146601;674;46016;-80
2021/11/04 03:39:46;;;;;;;;;14.00;11.75;;;;;14.15;74.51;101360.84;146607;605;46012;-76
2021/11/04 03:42:21;;;;;;;;;14.50;11.25;;;;;14.16;74.62;101366.94;146603;656;46016;-78
2021/11/04 03:44:56;;;;;;;;;12.00;11.00;;;;;14.16;74.22;101359.13;146604;601;46020;-78
2021/11/04 03:47:34;;;;;;;;;13.50;10.50;;;;;14.15;74.24;101367.78;146605;571;45918;-79
2021/11/04 03:50:10;;;;;;;;;13.00;10.50;;;;;14.12;73.69;101365.03;146605;596;45023;-83
2021/11/04 03:52:48;;;;;;;;;11.00;9.00;;;;;14.10;73.62;101371.03;146602;597;46016;-83
2021/11/04 03:55:25;;;;;;;;;11.50;10.00;;;;;14.08;74.02;101367.50;146608;576;46012;-73
2021/11/04 03:58:01;;;;;;;;;13.25;11.50;;;;;14.04;73.36;101375.97;146602;703;46016;-74
2021/11/04 04:00:35;;;;;;;;;13.50;11.25;;;;;14.01;74.02;101382.75;146608;596;46010;-73
2021/11/04 04:03:09;;;;;;;;;8.25;7.50;;;;;13.98;73.97;101393.91;146602;570;46016;-74
2021/11/04 04:05:43;;;;;;;;;13.25;11.00;;;;;13.97;73.57;101391.25;146606;608;46012;-75
2021/11/04 04:08:16;;;;;;;;;10.50;9.25;;;;;13.95;74.08;101405.91;146606;693;46012;-74
2021/11/04 04:10:50;;;;;;;;;10.00;10.00;;;;;13.94;74.21;101404.13;146605;721;46021;-72
2021/11/04 04:13:24;;;;;;;;;13.75;13.75;;;;;13.92;74.67;101405.78;146604;570;46016;-72
2021/11/04 04:15:58;;;;;;;;;11.00;10.25;;;;;13.84;74.90;101400.19;146601;600;46020;-74
2021/11/04 04:18:32;;;;;;;;;15.25;12.50;;;;;13.76;74.87;101410.22;146602;574;46017;-73
2021/11/04 04:21:06;;;;;;;;;11.75;11.25;;;;;13.69;74.15;101404.66;146606;571;46020;-72
2021/11/04 04:23:40;;;;;;;;;12.00;11.50;;;;;13.65;75.02;101402.72;146603;594;46016;-72
2021/11/04 04:26:14;;;;;;;;;15.25;12.50;;;;;13.62;75.01;101401.75;146607;591;46010;-74
2021/11/04 04:28:47;;;;;;;;;12.50;11.50;;;;;13.60;74.62;101405.97;146601;573;47917;-75
2021/11/04 04:31:21;;;;;;;;;14.00;11.25;;;;;13.60;75.11;101403.37;146607;595;46012;-74
2021/11/04 04:33:55;;;;;;;;;12.00;10.50;;;;;13.61;74.70;101401.66;146603;573;46016;-75
2021/11/04 04:36:29;;;;;;;;;14.00;13.00;;;;;13.62;74.29;101396.53;146603;563;46020;-74
2021/11/04 04:39:03;;;;;;;;;11.50;9.75;;;;;13.64;74.33;101404.41;146606;615;45918;-75
2021/11/04 04:41:37;;;;;;;;;14.25;11.25;;;;;13.70;74.40;101411.66;146604;571;46020;-76
2021/11/04 04:44:11;;;;;;;;;10.75;9.50;;;;;13.66;74.98;101407.13;146604;569;46012;-75
2021/11/04 04:46:49;;;;;;;;;14.00;11.50;;;;;13.60;74.60;101405.97;146605;605;46012;-79
2021/11/04 04:49:24;;;;;;;;;13.00;11.25;;;;;13.57;75.33;101410.16;146603;569;46016;-79
2021/11/04 04:51:58;;;;;;;;;14.50;12.25;;;;;13.53;74.85;101408.22;146605;591;46012;-79
2021/11/04 04:54:31;;;;;;;;;13.25;12.75;;;;;13.51;75.17;101420.25;146602;566;46017;-76
2021/11/04 04:57:05;;;;;;;;;13.00;13.00;;;;;13.48;74.89;101418.38;146605;616;46033;-75
2021/11/04 04:59:39;;;;;;;;;13.00;12.00;;;;;13.50;74.77;101418.47;146602;641;47917;-75
2021/11/04 05:02:13;;;;;;;;;15.75;14.00;;;;;13.52;75.09;101424.66;146606;575;46021;-73
2021/11/04 05:04:47;;;;;;;;;18.00;16.00;;;;;13.51;75.72;101426.34;146602;620;46016;-72
2021/11/04 05:07:22;;;;;;;;;16.00;14.00;;;;;13.45;76.20;101420.84;146604;634;46012;-72
2021/11/04 05:09:56;;;;;;;;;16.00;14.00;;;;;13.44;76.41;101426.00;146601;580;46017;-72
2021/11/04 05:12:30;;;;;;;;;15.25;14.25;;;;;13.38;75.93;101422.25;146605;572;46020;-73
2021/11/04 05:15:04;;;;;;;;;15.75;14.50;;;;;13.45;75.63;101433.87;146602;566;46017;-74
2021/11/04 05:17:38;;;;;;;;;23.75;16.75;;;;;13.47;76.33;101432.25;146606;580;46021;-74
2021/11/04 05:20:12;;;;;;;;;15.75;14.00;;;;;13.48;76.27;101434.03;146602;590;46016;-74
2021/11/04 05:22:46;;;;;;;;;24.00;19.50;;;;;13.50;75.99;101429.78;146606;563;46020;-73
2021/11/04 05:25:20;;;;;;;;;17.75;15.25;;;;;13.54;75.67;101436.94;146601;719;46016;-73
2021/11/04 05:27:54;;;;;;;;;14.50;14.25;;;;;13.61;75.75;101440.75;146605;688;46020;-76
2021/11/04 05:30:28;;;;;;;;;18.25;13.75;;;;;13.65;75.50;101434.88;146605;618;46012;-77
2021/11/04 05:33:02;;;;;;;;;13.25;11.50;;;;;13.72;75.58;101442.19;146606;577;45021;-76
2021/11/04 05:35:36;;;;;;;;;17.50;15.25;;;;;13.85;75.44;101438.47;146604;573;45020;-75
2021/11/04 05:38:10;;;;;;;;;16.75;15.25;;;;;14.10;75.44;101441.44;146604;600;46020;-75
2021/11/04 05:40:44;;;;;;;;;18.50;16.75;;;;;14.55;74.77;101448.84;146602;616;46035;-77
2021/11/04 05:43:18;;;;;;;;;15.00;11.75;;;;;14.92;74.03;101443.59;146606;591;46010;-77
2021/11/04 05:45:52;;;;;;;;;17.00;15.25;;;;;15.22;73.28;101449.25;146604;661;46035;-76
2021/11/04 05:48:26;;;;;;;;;15.00;14.00;;;;;15.71;72.67;101450.50;146606;586;46010;-82
2021/11/04 05:51:01;;;;;;;;;16.75;16.50;;;;;16.43;72.31;101445.56;146603;614;46016;-79
2021/11/04 05:53:35;;;;;;;;;14.75;13.00;;;;;17.29;69.74;101451.41;146607;638;45025;-80
2021/11/04 05:56:09;;;;;;;;;18.25;15.50;;;;;18.14;67.85;101452.56;146602;685;46016;-79
2021/11/04 05:58:43;;;;;;;;;18.50;16.75;;;;;18.99;66.18;101453.38;146602;635;46020;-77
2021/11/04 06:01:16;;;;;;;;;20.25;17.75;;;;;19.72;63.66;101451.88;146607;583;46013;-77
2021/11/04 06:03:50;;;;;;;;;23.25;21.00;;;;;20.24;62.65;101451.41;146607;590;45030;-77
2021/11/04 06:06:24;;;;;;;;;22.75;21.50;;;;;20.55;61.01;101457.41;146602;563;46016;-76
2021/11/04 06:08:58;;;;;;;;;22.25;20.50;;;;;20.69;60.86;101457.72;146606;577;46012;-77
2021/11/04 06:11:32;;;;;;;;;24.50;20.00;;;;;20.83;60.13;101465.91;146602;594;46016;-82
2021/11/04 06:14:06;;;;;;;;;23.75;20.00;;;;;21.07;60.03;101450.59;146607;657;46020;-82
2021/11/04 06:16:40;;;;;;;;;23.25;20.75;;;;;21.43;59.26;101452.19;146602;588;46017;-77
2021/11/04 06:19:14;;;;;;;;;20.00;18.00;;;;;21.60;58.01;101450.75;146606;627;46020;-78
2021/11/04 06:21:48;;;;;;;;;26.75;24.00;;;;;21.45;58.13;101455.75;146602;563;47918;-84
2021/11/04 06:24:22;;;;;;;;;31.00;24.50;;;;;21.13;58.72;101463.91;146602;641;46020;-81
2021/11/04 06:26:56;;;;;;;;;21.25;20.50;;;;;20.76;58.92;101457.00;146605;600;45917;-81
2021/11/04 06:29:30;;;;;;;;;27.75;25.50;;;;;20.36;60.17;101463.09;146606;597;46020;-76
2021/11/04 06:32:04;;;;;;;;;36.75;31.25;;;;;19.95;60.73;101455.97;146607;645;46013;-77
2021/11/04 06:34:38;;;;;;;;;32.50;30.25;;;;;19.59;61.98;101464.72;146605;569;46020;-79
2021/11/04 06:37:12;;;;;;;;;36.75;32.25;;;;;19.24;63.07;101470.75;146602;617;46017;-75
2021/11/04 06:39:46;;;;;;;;;37.50;29.00;;;;;18.93;64.04;101481.25;146607;593;46020;-76
2021/11/04 06:42:20;;;;;;;;;36.50;29.75;;;;;18.66;64.82;101472.53;146605;674;46012;-76
2021/11/04 06:45:01;;;;;;;;;40.00;32.25;;;;;18.48;65.87;101467.63;146607;616;46021;-77
2021/11/04 06:47:51;;;;;;;;;33.50;29.50;;;;;18.42;66.51;101470.94;146602;634;46016;-77
2021/11/04 06:50:29;;;;;;;;;34.50;30.00;;;;;18.35;67.03;101474.25;146602;615;46020;-76
2021/11/04 06:53:14;;;;;;;;;38.50;30.50;;;;;18.26;67.12;101478.31;146608;586;46012;-76
2021/11/04 06:55:49;;;;;;;;;36.00;31.00;;;;;18.18;66.86;101481.56;146606;588;45020;-75
2021/11/04 06:58:28;;;;;;;;;43.25;34.50;;;;;18.14;66.91;101478.81;146604;602;46033;-74
2021/11/04 07:01:17;;;;;;;;;35.50;30.25;;;;;18.13;67.91;101487.50;146611;680;46021;-74
2021/11/04 07:04:20;;;;;;;;;34.50;31.50;;;;;17.06;67.80;101296.88;146603;644;46016;-73
2021/11/04 07:07:07;;;;;;;;;39.00;32.00;;;;;18.21;68.20;101489.53;146605;645;46020;-73
2021/11/04 07:09:46;;;;;;;;;32.25;31.00;;;;;18.30;68.00;101482.81;146603;577;46016;-75
2021/11/04 07:12:20;;;;;;;;;31.75;30.00;;;;;18.40;67.69;101482.25;146605;579;46010;-73
2021/11/04 07:14:54;;;;;;;;;32.25;30.00;;;;;18.55;68.07;101487.97;146602;565;46016;-75
2021/11/04 07:17:28;;;;;;;;;36.00;30.75;;;;;18.74;67.97;101483.31;146602;635;46020;-79
2021/11/04 07:20:02;;;;;;;;;37.75;32.25;;;;;18.99;67.46;101490.19;146603;573;46016;-81
2021/11/04 07:22:44;;;;;;;;;40.75;32.75;;;;;19.15;66.58;101492.41;146624;581;48021;-82
2021/11/04 07:25:21;;;;;;;;;38.00;31.50;;;;;19.26;66.85;101483.09;146603;598;46016;-82
2021/11/04 07:28:34;;;;;;;;;42.75;33.75;;;;;19.32;66.03;101487.63;146605;611;46020;-75
2021/11/04 07:31:11;;;;;;;;;36.50;31.00;;;;;19.31;66.67;101494.59;146602;586;46017;-73
2021/11/04 07:33:47;;;;;;;;;42.75;36.50;;;;;19.31;66.89;101493.72;146606;624;46020;-72
2021/11/04 07:36:24;;;;;;;;;45.25;34.75;;;;;19.35;66.85;101495.59;146601;581;46016;-75
2021/11/04 07:38:58;;;;;;;;;43.75;35.75;;;;;19.42;66.66;101496.66;146602;566;46021;-75
2021/11/04 07:41:36;;;;;;;;;42.00;34.25;;;;;19.53;66.79;101489.94;146603;625;46016;-77
2021/11/04 07:44:12;;;;;;;;;39.25;34.00;;;;;19.62;66.61;101485.84;146603;675;47010;-75
2021/11/04 07:46:45;;;;;;;;;41.00;33.00;;;;;19.74;66.13;101492.28;146602;680;46017;-77
2021/11/04 07:49:19;;;;;;;;;37.00;32.50;;;;;19.81;66.35;101491.59;146607;640;46020;-74
2021/11/04 07:51:58;;;;;;;;;38.25;31.50;;;;;19.90;66.07;101489.19;146603;637;46017;-69
2021/11/04 07:54:34;;;;;;;;;38.00;33.75;;;;;19.98;66.37;101492.03;146604;644;46021;-73
2021/11/04 07:57:09;;;;;;;;;38.25;32.75;;;;;20.05;65.93;101497.47;146604;584;46016;-69
2021/11/04 07:59:43;;;;;;;;;37.00;32.00;;;;;20.10;66.07;101510.75;146606;618;46021;-77
2021/11/04 08:02:17;;;;;;;;;44.00;34.75;;;;;20.16;66.30;101505.66;146603;588;46016;-77
2021/11/04 08:04:51;;;;;;;;;38.00;32.25;;;;;20.28;66.36;101494.53;146605;569;46020;-77
2021/11/04 08:07:25;;;;;;;;;31.75;29.50;;;;;20.53;66.12;101501.28;146604;569;45918;-78
2021/11/04 08:09:59;;;;;;;;;30.50;26.00;;;;;20.82;65.66;101499.28;146605;653;46010;-75
2021/11/04 08:12:33;;;;;;;;;48.25;31.25;;;;;21.13;64.89;101505.22;146603;606;47917;-82
2021/11/04 08:15:10;;;;;;;;;31.00;26.75;;;;;21.44;64.72;101493.56;146606;590;46021;-76
2021/11/04 08:17:44;;;;;;;;;30.50;25.50;;;;;21.73;64.24;101496.72;146602;566;46016;-76
2021/11/04 08:20:18;;;;;;;;;25.00;24.25;;;;;21.98;63.62;101492.75;146606;592;46020;-76
2021/11/04 08:22:52;;;;;;;;;25.50;23.50;;;;;22.17;63.16;101496.59;146601;613;46017;-76
2021/11/04 08:25:26;;;;;;;;;27.75;24.75;;;;;22.41;62.61;101511.06;146607;616;46020;-76
2021/11/04 08:28:00;;;;;;;;;24.00;23.00;;;;;22.65;62.33;101507.87;146605;585;46012;-74
2021/11/04 08:30:34;;;;;;;;;32.75;28.75;;;;;22.83;61.16;101508.13;146606;585;45023;-75
2021/11/04 08:33:08;;;;;;;;;38.75;32.75;;;;;23.01;61.36;101511.06;146602;633;46016;-75
2021/11/04 08:35:42;;;;;;;;;44.25;35.75;;;;;23.16;60.89;101514.78;146604;587;46012;-75
2021/11/04 08:38:16;;;;;;;;;70.50;55.75;;;;;23.17;60.78;101513.91;146603;584;46016;-75
2021/11/04 08:40:50;;;;;;;;;50.00;39.75;;;;;23.16;60.57;101514.78;146606;586;46010;-75
2021/11/04 08:43:24;;;;;;;;;37.75;30.50;;;;;22.95;60.90;101486.28;146605;610;46013;-75
2021/11/04 08:45:58;;;;;;;;;41.00;35.00;;;;;22.86;60.69;101513.47;146608;599;45021;-74
2021/11/04 08:48:32;;;;;;;;;34.75;31.25;;;;;22.71;62.44;101507.97;146606;572;46012;-74
2021/11/04 08:51:07;;;;;;;;;60.75;47.75;;;;;22.71;62.33;101506.25;146607;619;45021;-76
2021/11/04 08:53:41;;;;;;;;;44.25;36.50;;;;;22.85;62.56;101497.59;146603;571;47918;-76
2021/11/04 08:56:15;;;;;;;;;34.50;30.00;;;;;23.05;62.14;101499.66;146604;609;46020;-75
2021/11/04 08:58:49;;;;;;;;;61.75;47.50;;;;;23.24;61.64;101497.22;146605;576;46012;-76
2021/11/04 09:01:23;;;;;;;;;34.00;29.25;;;;;23.43;61.18;101503.63;146603;628;46020;-76
2021/11/04 09:03:58;;;;;;;;;41.25;34.50;;;;;23.55;60.98;101502.84;146605;582;47012;-77
2021/11/04 09:06:32;;;;;;;;;35.00;29.00;;;;;23.63;60.88;101503.81;146604;587;46021;-76
2021/11/04 09:09:05;;;;;;;;;42.50;35.00;;;;;23.70;60.40;101498.63;146601;651;47012;-77
2021/11/04 09:11:40;;;;;;;;;35.75;31.00;;;;;23.79;60.22;101494.28;146605;588;46020;-76
2021/11/04 09:14:15;;;;;;;;;37.75;29.00;;;;;23.84;59.32;101501.41;146606;567;46012;-77
2021/11/04 09:16:49;;;;;;;;;34.25;28.00;;;;;23.85;60.04;101495.25;146605;586;46020;-76
2021/11/04 09:19:22;;;;;;;;;31.25;26.25;;;;;23.83;59.71;101504.94;146605;563;45918;-77
2021/11/04 09:21:58;;;;;;;;;37.25;31.00;;;;;23.83;60.15;101498.75;146605;635;46021;-77
2021/11/04 09:24:33;;;;;;;;;36.25;30.00;;;;;23.85;59.71;101492.59;146606;637;46012;-76
2021/11/04 09:27:07;;;;;;;;;31.25;28.00;;;;;23.93;59.71;101490.91;146605;695;46020;-77
2021/11/04 09:29:41;;;;;;;;;31.75;28.50;;;;;23.98;59.65;101488.28;146602;637;46016;-77
2021/11/04 09:32:15;;;;;;;;;29.25;26.50;;;;;24.03;59.79;101480.38;146605;592;46028;-77
2021/11/04 09:34:49;;;;;;;;;25.00;23.25;;;;;24.05;59.77;101478.63;146605;582;46013;-77
2021/11/04 09:37:24;;;;;;;;;30.00;27.50;;;;;24.09;58.75;101480.44;146607;616;47010;-77
2021/11/04 09:39:58;;;;;;;;;32.25;28.50;;;;;24.08;59.99;101481.28;146603;640;46012;-73
2021/11/04 09:42:32;;;;;;;;;21.50;18.25;;;;;24.09;60.15;101480.44;146605;596;46020;-73
2021/11/04 09:45:07;;;;;;;;;25.75;21.75;;;;;24.16;58.84;101472.53;146603;565;46017;-74
2021/11/04 09:47:41;;;;;;;;;18.75;17.50;;;;;24.20;58.33;101477.00;146605;575;46020;-73
2021/11/04 09:50:19;;;;;;;;;20.75;19.25;;;;;24.16;58.97;101475.19;146603;674;46016;-73
2021/11/04 09:52:56;;;;;;;;;29.50;21.75;;;;;24.08;58.07;101483.94;146601;564;46020;-73
2021/11/04 09:55:32;;;;;;;;;20.00;17.00;;;;;23.96;57.82;101480.34;146604;665;46025;-73
2021/11/04 09:58:07;;;;;;;;;22.00;18.00;;;;;23.88;58.98;101471.44;146606;642;46010;-73
2021/11/04 10:00:44;;;;;;;;;19.75;18.00;;;;;23.90;59.69;101472.34;146603;565;45918;-73
2021/11/04 10:03:19;;;;;;;;;16.75;16.75;;;;;23.95;59.15;101475.00;146607;646;46010;-74
2021/11/04 10:05:57;;;;;;;;;18.75;15.50;;;;;24.03;58.80;101472.44;146603;741;45918;-74
2021/11/04 10:08:38;;;;;;;;;16.50;16.00;;;;;24.02;58.63;101468.00;146606;612;47010;-73
2021/11/04 10:11:16;;;;;;;;;19.00;18.25;;;;;24.00;58.80;101465.34;146603;569;46016;-74
2021/11/04 10:13:52;;;;;;;;;16.25;16.25;;;;;24.00;59.20;101461.81;146605;577;46010;-74
2021/11/04 10:16:30;;;;;;;;;16.25;15.75;;;;;24.08;58.93;101455.72;146602;591;46016;-74
2021/11/04 10:19:09;;;;;;;;;22.00;16.50;;;;;24.20;59.17;101445.19;146605;576;46010;-75
2021/11/04 10:21:46;;;;;;;;;19.25;16.50;;;;;24.36;58.61;101440.87;146604;657;46016;-75
2021/11/04 10:24:29;;;;;;;;;24.00;21.75;;;;;24.49;58.91;101441.88;146604;563;46020;-73
2021/11/04 10:27:05;;;;;;;;;26.25;22.00;;;;;24.59;57.88;101442.78;146603;585;47918;-74
2021/11/04 10:29:40;;;;;;;;;23.50;22.50;;;;;24.62;57.28;101434.84;146604;650;46021;-74
2021/11/04 10:32:16;;;;;;;;;24.75;22.50;;;;;24.63;58.00;101434.84;146603;591;46014;-74
2021/11/04 10:34:50;;;;;;;;;25.25;22.75;;;;;24.66;57.73;101433.97;146608;577;46011;-74
2021/11/04 10:37:24;;;;;;;;;23.50;20.00;;;;;24.50;57.35;101422.41;146604;722;46012;-72
2021/11/04 10:40:07;;;;;;;;;25.50;21.75;;;;;24.52;58.70;101435.69;146604;575;46020;-74
2021/11/04 10:43:06;;;;;;;;;24.25;20.25;;;;;24.53;58.47;101445.41;146604;571;46012;-74
2021/11/04 10:45:40;;;;;;;;;24.25;20.75;;;;;24.47;58.11;101438.31;146605;564;46010;-73
2021/11/04 10:48:25;;;;;;;;;21.00;19.75;;;;;24.43;58.24;101442.72;146605;642;47012;-74
2021/11/04 10:50:59;;;;;;;;;25.50;22.00;;;;;24.40;58.30;101445.31;146605;582;46021;-73
2021/11/04 10:53:33;;;;;;;;;17.00;15.75;;;;;24.42;56.87;101446.25;146603;583;46016;-75
2021/11/04 10:56:23;;;;;;;;;21.00;18.25;;;;;24.40;58.97;101437.34;146606;573;46020;-73
2021/11/04 10:59:16;;;;;;;;;21.00;17.50;;;;;24.51;58.12;101445.38;146603;575;46029;-74
2021/11/04 11:01:58;;;;;;;;;16.50;16.00;;;;;24.54;57.55;101441.88;146607;627;46020;-74
2021/11/04 11:04:47;;;;;;;;;17.75;16.50;;;;;24.52;56.61;101438.34;146604;654;47012;-75
2021/11/04 11:07:21;;;;;;;;;17.50;16.50;;;;;24.58;58.06;101436.59;146608;609;46010;-75
2021/11/04 11:09:55;;;;;;;;;14.00;13.00;;;;;24.69;56.92;101441.94;146603;649;46016;-75
2021/11/04 11:12:30;;;;;;;;;13.67;12.00;;;;;24.83;57.07;101444.69;146606;634;46010;-75
2021/11/04 11:15:03;;;;;;;;;12.67;11.00;;;;;24.98;57.01;101430.56;146603;653;46016;-74
2021/11/04 11:17:37;;;;;;;;;13.00;11.67;;;;;25.10;55.79;101434.13;146607;592;46020;-75
2021/11/04 11:20:13;;;;;;;;;11.67;10.33;;;;;25.17;56.01;101437.75;146605;606;46020;-74
2021/11/04 11:22:47;;;;;;;;;11.67;10.67;;;;;25.26;56.23;101429.78;146606;610;47010;-74
2021/11/04 11:25:21;;;;;;;;;11.67;10.00;;;;;25.38;54.55;101426.25;146604;614;46016;-73
2021/11/04 11:27:57;;;;;;;;;13.33;12.33;;;;;25.41;53.52;101415.66;146606;727;46021;-74
2021/11/04 11:30:31;;;;;;;;;12.33;10.67;;;;;25.41;55.39;101407.69;146606;571;46012;-73
2021/11/04 11:33:27;;;;;;;;;13.00;11.33;;;;;25.48;56.44;101406.81;146605;582;46020;-74
2021/11/04 11:36:22;;;;;;;;;13.33;10.33;;;;;24.94;52.99;101304.09;146602;586;46017;-75
2021/11/04 11:39:15;;;;;;;;;11.33;10.67;;;;;25.41;53.98;101409.47;146605;636;46020;-76
2021/11/04 11:42:24;;;;;;;;;9.67;8.33;;;;;25.02;55.42;101347.47;146604;590;46032;-76
2021/11/04 11:45:04;;;;;;;;;12.33;9.33;;;;;25.24;54.23;101397.06;146606;605;46020;-75
2021/11/04 11:47:46;;;;;;;;;10.33;8.00;;;;;25.16;54.27;101387.31;146607;625;46016;-74
2021/11/04 11:50:46;;;;;;;;;12.67;10.00;;;;;24.53;52.13;101302.25;146606;593;46021;-73
2021/11/04 11:53:53;;;;;;;;;8.67;8.00;;;;;24.76;51.71;101374.78;146601;565;46016;-73